createdAt,value
2019-01-05T02:31:48.367Z,42.20
2019-01-05T02:35:32.810Z,40.12
2019-01-05T02:39:31.848Z,36.07
2019-01-05T02:43:02.327Z,36.87
2019-01-05T02:46:36.557Z,38.50
2019-01-05T02:50:13.144Z,35.13
2019-01-05T02:54:05.400Z,36.97
2019-01-05T02:57:11.445Z,38.23
2019-01-05T03:00:41.112Z,38.27
2019-01-05T03:03:58.473Z,30.37
2019-01-05T03:07:32.949Z,38.67
2019-01-05T03:11:05.302Z,37.60
2019-01-05T03:14:49.100Z,32.60
2019-01-05T03:18:13.430Z,25.83
2019-01-05T03:21:54.854Z,32.30
2019-01-05T03:25:12.168Z,30.00
2019-01-05T03:28:44.910Z,29.53
2019-01-05T03:32:13.753Z,29.07
2019-01-05T03:35:45.127Z,31.80
2019-01-05T03:39:05.450Z,31.80
2019-01-05T03:42:29.877Z,33.53
2019-01-05T03:46:05.484Z,37.43
2019-01-05T03:49:38.201Z,33.33
2019-01-05T03:53:01.991Z,30.27
2019-01-05T03:56:22.684Z,37.25
2019-01-05T04:00:02.035Z,31.37
2019-01-05T04:03:17.553Z,39.45
2019-01-05T04:07:11.134Z,39.23
2019-01-05T04:10:34.912Z,34.10
2019-01-05T04:14:24.821Z,39.43
2019-01-05T04:18:02.648Z,38.23
2019-01-05T04:21:54.837Z,39.63
2019-01-05T04:25:21.629Z,38.57
2019-01-05T04:28:51.936Z,38.53
2019-01-05T04:32:16.521Z,41.48
2019-01-05T04:35:59.428Z,40.03
2019-01-05T04:39:35.613Z,41.87
2019-01-05T04:42:48.954Z,40.27
2019-01-05T04:46:13.172Z,41.33
2019-01-05T04:50:04.760Z,40.70
2019-01-05T04:53:49.104Z,35.80
2019-01-05T04:57:44.344Z,42.50
2019-01-05T05:01:32.505Z,42.10
2019-01-05T05:05:13.429Z,42.50
2019-01-05T05:08:47.042Z,38.03
2019-01-05T05:12:16.553Z,35.30
2019-01-05T05:15:57.481Z,42.60
2019-01-05T05:19:15.524Z,38.33
2019-01-05T05:22:57.277Z,29.50
2019-01-05T05:26:04.418Z,42.40
2019-01-05T05:29:44.779Z,38.50
2019-01-05T05:33:16.037Z,42.25
2019-01-05T05:37:02.317Z,36.03
2019-01-05T05:40:52.691Z,37.10
2019-01-05T05:44:46.746Z,38.34
2019-01-05T05:48:15.103Z,35.98
2019-01-05T05:52:08.001Z,39.30
2019-01-05T05:55:50.350Z,37.83
2019-01-05T05:59:36.627Z,37.90
2019-01-05T06:03:10.765Z,40.87
2019-01-05T06:06:34.627Z,36.57
2019-01-05T06:10:28.952Z,34.88
2019-01-05T06:13:58.361Z,33.00
2019-01-05T06:17:23.390Z,35.40
2019-01-05T06:20:51.337Z,37.10
2019-01-05T06:24:34.097Z,36.87
2019-01-05T06:28:32.593Z,37.17
2019-01-05T06:32:10.935Z,35.33
2019-01-05T06:35:35.099Z,36.70
2019-01-05T06:39:25.642Z,31.23
2019-01-05T06:42:53.385Z,27.17
2019-01-05T06:46:15.562Z,36.20
2019-01-05T06:50:07.348Z,33.20
2019-01-05T06:53:54.632Z,27.97
2019-01-05T06:57:26.792Z,33.35
2019-01-05T07:01:20.245Z,28.63
2019-01-05T07:04:57.926Z,27.20
2019-01-05T07:08:21.296Z,31.17
2019-01-05T07:11:29.501Z,31.83
2019-01-05T07:15:28.015Z,31.80
2019-01-05T07:18:40.263Z,34.70
2019-01-05T07:22:33.165Z,29.77
2019-01-05T07:26:14.732Z,36.93
2019-01-05T07:29:37.248Z,27.50
2019-01-05T07:32:58.060Z,34.07
2019-01-05T07:36:37.515Z,26.30
2019-01-05T07:40:11.647Z,32.03
2019-01-05T07:43:45.355Z,24.25
2019-01-05T07:47:50.753Z,24.92
2019-01-05T07:51:03.563Z,26.52
2019-01-05T07:54:32.635Z,26.33
2019-01-05T07:58:07.609Z,24.52
2019-01-05T08:01:34.758Z,28.40
2019-01-05T08:05:04.594Z,28.45
2019-01-05T08:08:27.781Z,24.60
2019-01-05T08:12:10.244Z,26.23
2019-01-05T08:15:26.829Z,18.97
2019-01-05T08:18:53.690Z,23.20
2019-01-05T08:22:24.973Z,23.87
2019-01-05T08:25:55.609Z,21.73
2019-01-05T08:29:23.882Z,22.42
2019-01-05T08:32:55.673Z,20.77
2019-01-05T08:36:50.837Z,18.42
2019-01-05T08:40:06.564Z,18.90
2019-01-05T08:43:38.901Z,18.10
2019-01-05T08:47:16.619Z,16.60
2019-01-05T08:50:30.483Z,18.05
2019-01-05T08:54:13.513Z,13.97
2019-01-05T08:57:39.329Z,16.10
2019-01-05T09:01:21.521Z,11.93
2019-01-05T09:05:17.214Z,13.20
2019-01-05T09:09:00.723Z,14.93
2019-01-05T09:12:32.049Z,7.50
2019-01-05T09:15:58.592Z,8.40
2019-01-05T09:19:31.656Z,11.80
2019-01-05T09:23:15.904Z,9.28
2019-01-05T09:26:40.096Z,9.33
2019-01-05T09:30:07.752Z,6.63
2019-01-05T09:33:54.614Z,9.50
2019-01-05T09:37:27.137Z,6.67
2019-01-05T09:41:27.321Z,7.23
2019-01-05T09:45:13.462Z,4.83
2019-01-05T09:48:43.369Z,4.20
2019-01-05T09:52:11.155Z,5.70
2019-01-05T09:55:47.898Z,4.77
2019-01-05T09:59:21.254Z,8.85
2019-01-05T10:03:05.928Z,5.23
2019-01-05T10:06:41.197Z,5.33
2019-01-05T10:10:01.621Z,7.20
2019-01-05T10:13:34.066Z,5.47
2019-01-05T10:17:14.579Z,6.80
2019-01-05T10:20:32.467Z,5.00
2019-01-05T10:24:00.217Z,6.33
2019-01-05T10:27:16.292Z,4.90
2019-01-05T10:31:07.767Z,3.90
2019-01-05T10:34:35.565Z,5.23
2019-01-05T10:38:03.904Z,4.90
2019-01-05T10:41:31.616Z,5.85
2019-01-05T10:45:23.024Z,2.80
2019-01-05T10:48:50.825Z,6.00
2019-01-05T10:52:11.533Z,5.28
2019-01-05T10:55:55.766Z,3.87
2019-01-05T10:59:33.605Z,4.50
2019-01-05T11:03:13.058Z,4.05
2019-01-05T11:06:52.494Z,5.10
2019-01-05T11:10:32.393Z,5.55
2019-01-05T11:14:05.659Z,6.50
2019-01-05T11:18:04.086Z,4.55
2019-01-05T11:22:01.077Z,3.60
2019-01-05T11:25:33.305Z,2.00
2019-01-05T11:28:56.963Z,5.20
2019-01-05T11:32:52.713Z,2.30
2019-01-05T11:36:24.085Z,2.80
2019-01-05T11:40:38.218Z,4.30
2019-01-05T11:44:06.582Z,2.70
2019-01-05T11:47:46.746Z,2.75
2019-01-05T11:51:05.384Z,4.40
2019-01-05T11:54:52.444Z,3.55
2019-01-05T11:58:31.220Z,5.90
2019-01-05T12:02:01.774Z,4.40
2019-01-05T12:05:22.554Z,5.10
2019-01-05T12:08:49.079Z,4.40
2019-01-05T12:12:22.503Z,4.87
2019-01-05T12:16:10.010Z,7.20
2019-01-05T12:20:03.547Z,6.07
2019-01-05T12:23:29.617Z,7.03
2019-01-05T12:27:00.561Z,7.70
2019-01-05T12:30:33.422Z,7.27
2019-01-05T12:34:00.386Z,8.30
2019-01-05T12:37:24.813Z,10.17
2019-01-05T12:40:52.510Z,9.50
2019-01-05T12:44:25.937Z,8.95
2019-01-05T12:47:55.952Z,8.00
2019-01-05T12:51:23.537Z,7.73
2019-01-05T12:54:56.305Z,9.03
2019-01-05T12:58:20.603Z,7.53
2019-01-05T13:02:02.187Z,10.27
2019-01-05T13:05:24.496Z,9.33
2019-01-05T13:09:03.184Z,8.13
2019-01-05T13:12:32.306Z,10.10
2019-01-05T13:15:49.332Z,10.53
2019-01-05T13:19:33.475Z,10.53
2019-01-05T13:23:29.363Z,7.90
2019-01-05T13:26:54.376Z,8.80
2019-01-05T13:30:21.907Z,10.70
2019-01-05T13:33:52.229Z,11.80
2019-01-05T13:37:34.364Z,9.78
2019-01-05T13:41:23.299Z,8.17
2019-01-05T13:44:51.320Z,9.80
2019-01-05T13:48:28.136Z,10.97
2019-01-05T13:51:45.806Z,8.33
2019-01-05T13:54:41.541Z,7.43
2019-01-05T13:57:47.724Z,8.00
2019-01-05T14:00:42.457Z,9.30
2019-01-05T14:03:33.116Z,8.13
2019-01-05T14:06:20.382Z,8.27
2019-01-05T14:09:18.501Z,8.50
2019-01-05T14:12:24.779Z,8.23
2019-01-05T14:15:28.041Z,7.83
2019-01-05T14:18:20.737Z,7.60
2019-01-05T14:21:21.605Z,8.00
2019-01-05T14:24:29.277Z,10.05
2019-01-05T14:27:09.644Z,7.67
2019-01-05T14:29:52.343Z,9.00
2019-01-05T14:32:33.804Z,9.05
2019-01-05T14:35:34.052Z,8.43
2019-01-05T14:38:37.299Z,8.27
2019-01-05T14:41:21.137Z,7.47
2019-01-05T14:44:20.069Z,6.30
2019-01-05T14:47:08.806Z,6.90
2019-01-05T14:50:09.617Z,8.00
2019-01-05T14:53:02.051Z,7.42
2019-01-05T14:55:47.941Z,6.47
2019-01-05T14:58:48.932Z,7.70
2019-01-05T15:01:36.367Z,7.07
2019-01-05T15:04:27.596Z,5.93
2019-01-05T15:07:25.432Z,7.42
2019-01-05T15:10:24.442Z,7.00
2019-01-05T15:13:15.632Z,6.60
2019-01-05T15:16:07.479Z,7.90
2019-01-05T15:18:58.000Z,7.70
2019-01-05T15:21:49.499Z,8.57
2019-01-05T15:24:43.805Z,8.60
2019-01-05T15:27:31.104Z,9.30
2019-01-05T15:30:37.640Z,8.50
2019-01-05T15:33:23.815Z,9.13
2019-01-05T15:36:30.726Z,9.07
2019-01-05T15:39:17.518Z,7.03
2019-01-05T15:42:14.673Z,9.27
2019-01-05T15:45:03.051Z,10.10
2019-01-05T15:48:00.090Z,7.60
2019-01-05T15:50:46.809Z,10.47
2019-01-05T15:53:34.655Z,9.80
2019-01-05T15:56:38.197Z,10.20
2019-01-05T15:59:25.133Z,9.80
2019-01-05T16:02:15.312Z,8.23
2019-01-05T16:05:02.371Z,10.87
2019-01-05T16:07:56.477Z,10.97
2019-01-05T16:10:48.271Z,11.55
2019-01-05T16:13:32.085Z,15.98
2019-01-05T16:16:29.556Z,19.83
2019-01-05T16:19:27.859Z,18.00
2019-01-05T16:22:15.184Z,14.60
2019-01-05T16:25:07.335Z,14.53
2019-01-05T16:27:49.316Z,9.77
2019-01-05T16:30:55.881Z,6.87
2019-01-05T16:33:45.184Z,11.13
2019-01-05T16:36:33.475Z,10.50
2019-01-05T16:39:31.349Z,10.60
2019-01-05T16:42:18.493Z,11.60
2019-01-05T16:45:05.823Z,11.43
2019-01-05T16:48:09.352Z,10.18
2019-01-05T16:51:04.096Z,11.90
2019-01-05T16:53:58.836Z,11.40
2019-01-05T16:56:45.581Z,11.40
2019-01-05T16:59:40.867Z,10.43
2019-01-05T17:02:28.077Z,10.73
2019-01-05T17:05:28.442Z,10.50
2019-01-05T17:08:11.139Z,10.40
2019-01-05T17:11:11.606Z,11.00
2019-01-05T17:13:58.650Z,10.23
2019-01-05T17:16:45.413Z,9.30
2019-01-05T17:19:38.441Z,11.88
2019-01-05T17:22:29.658Z,11.30
2019-01-05T17:25:18.306Z,10.05
2019-01-05T17:28:06.867Z,8.87
2019-01-05T17:31:01.470Z,10.73
2019-01-05T17:33:48.489Z,10.00
2019-01-05T17:36:51.537Z,11.13
2019-01-05T17:39:51.316Z,11.90
2019-01-05T17:42:33.514Z,10.97
2019-01-05T17:45:27.986Z,11.20
2019-01-05T17:48:17.351Z,12.20
2019-01-05T17:51:05.565Z,10.63
2019-01-05T17:54:10.611Z,11.18
2019-01-05T17:56:59.243Z,11.33
2019-01-05T17:59:46.270Z,10.37
2019-01-05T18:02:43.849Z,11.25
2019-01-05T18:05:31.196Z,10.48
2019-01-05T18:08:28.462Z,12.80
2019-01-05T18:11:32.494Z,12.77
2019-01-05T18:14:31.559Z,12.87
2019-01-05T18:17:16.622Z,10.63
2019-01-05T18:20:19.892Z,13.70
2019-01-05T18:23:08.287Z,19.20
2019-01-05T18:25:56.088Z,15.20
2019-01-05T18:28:47.817Z,17.07
2019-01-05T18:31:43.461Z,13.40
2019-01-05T18:34:41.293Z,14.20
2019-01-05T18:37:35.752Z,13.20
2019-01-05T18:40:36.699Z,17.70
2019-01-05T18:43:38.436Z,13.60
2019-01-05T18:46:39.310Z,15.00
2019-01-05T18:49:33.896Z,13.60
2019-01-05T18:52:25.030Z,18.70
2019-01-05T18:55:28.175Z,16.37
2019-01-05T18:58:22.748Z,14.20
2019-01-05T19:01:13.210Z,14.13
2019-01-05T19:04:04.438Z,14.43
2019-01-05T19:06:52.013Z,12.63
2019-01-05T19:09:53.032Z,13.75
2019-01-05T19:12:39.786Z,12.07
2019-01-05T19:15:43.098Z,15.60
2019-01-05T19:18:29.995Z,15.30
2019-01-05T19:21:21.653Z,18.73
2019-01-05T19:24:08.396Z,17.82
2019-01-05T19:27:14.741Z,23.53
2019-01-05T19:30:03.068Z,16.57
2019-01-05T19:32:50.548Z,12.93
2019-01-05T19:35:38.605Z,12.77
2019-01-05T19:38:36.811Z,11.18
2019-01-05T19:41:23.690Z,10.90
2019-01-05T19:44:30.263Z,11.78
2019-01-05T19:47:16.988Z,11.77
2019-01-05T19:50:17.497Z,13.20
2019-01-05T19:53:08.833Z,12.70
2019-01-05T19:56:00.470Z,16.67
2019-01-05T19:59:01.318Z,14.03
2019-01-05T20:01:57.723Z,14.18
2019-01-05T20:04:49.225Z,14.67
2019-01-05T20:07:36.142Z,15.63
2019-01-05T20:10:24.618Z,14.33
2019-01-05T20:13:32.783Z,14.03
2019-01-05T20:16:11.746Z,13.70
2019-01-05T20:18:58.822Z,14.33
2019-01-05T20:21:47.801Z,13.50
2019-01-05T20:24:35.392Z,13.10
2019-01-05T20:27:22.176Z,12.67
2019-01-05T20:30:09.980Z,19.27
2019-01-05T20:33:07.261Z,13.17
2019-01-05T20:35:54.324Z,13.23
2019-01-05T20:38:51.641Z,14.50
2019-01-05T20:41:52.266Z,8.63
2019-01-05T20:44:43.401Z,12.60
2019-01-05T20:47:30.854Z,13.03
2019-01-05T20:50:28.433Z,15.17
2019-01-05T20:53:35.056Z,11.73
2019-01-05T20:56:26.350Z,14.50
2019-01-05T20:59:13.127Z,11.43
2019-01-05T21:02:00.237Z,11.03
2019-01-05T21:04:47.937Z,12.87
2019-01-05T21:07:49.266Z,12.03
2019-01-05T21:10:37.604Z,11.68
2019-01-05T21:13:25.040Z,12.63
2019-01-05T21:16:16.101Z,14.27
2019-01-05T21:19:04.427Z,13.80
2019-01-05T21:21:51.735Z,13.10
2019-01-05T21:24:38.409Z,11.75
2019-01-05T21:27:35.736Z,11.70
2019-01-05T21:30:37.356Z,12.53
2019-01-05T21:33:37.873Z,10.90
2019-01-05T21:36:41.404Z,10.97
2019-01-05T21:39:30.371Z,11.00
2019-01-05T21:42:33.510Z,11.50
2019-01-05T21:45:41.334Z,11.13
2019-01-05T21:48:25.729Z,11.97
2019-01-05T21:51:14.951Z,10.60
2019-01-05T21:54:08.549Z,11.67
2019-01-05T21:56:52.319Z,10.80
2019-01-05T21:59:37.319Z,10.80
2019-01-05T22:02:24.400Z,10.87
2019-01-05T22:05:23.489Z,10.03
2019-01-05T22:08:15.353Z,11.17
2019-01-05T22:11:10.726Z,10.90
2019-01-05T22:13:53.596Z,9.67
2019-01-05T22:16:41.937Z,10.93
2019-01-05T22:19:29.005Z,9.40
2019-01-05T22:22:21.069Z,10.07
2019-01-05T22:25:07.781Z,10.20
2019-01-05T22:27:56.162Z,11.30
2019-01-05T22:30:48.093Z,11.10
2019-01-05T22:33:36.461Z,9.75
2019-01-05T22:36:23.507Z,9.47
2019-01-05T22:39:17.600Z,11.90
2019-01-05T22:42:20.874Z,11.15
2019-01-05T22:45:19.950Z,12.13
2019-01-05T22:48:18.142Z,9.33
2019-01-05T22:51:06.475Z,9.53
2019-01-05T22:54:00.400Z,11.77
2019-01-05T22:57:02.788Z,11.17
2019-01-05T22:59:57.872Z,10.80
2019-01-05T23:02:49.579Z,9.75
2019-01-05T23:05:38.151Z,9.13
2019-01-05T23:08:26.504Z,9.30
2019-01-05T23:11:13.213Z,10.20
2019-01-05T23:14:19.537Z,10.40
2019-01-05T23:17:26.045Z,9.10
2019-01-05T23:20:14.502Z,9.30
2019-01-05T23:23:18.239Z,10.07
2019-01-05T23:26:04.693Z,11.07
2019-01-05T23:28:44.661Z,10.37
2019-01-05T23:31:31.369Z,11.73
2019-01-05T23:34:18.418Z,10.30
2019-01-05T23:37:05.264Z,10.87
2019-01-05T23:39:56.710Z,10.88
2019-01-05T23:42:45.042Z,10.53
2019-01-05T23:45:50.091Z,8.93
2019-01-05T23:48:30.321Z,9.40
2019-01-05T23:51:34.129Z,8.40
2019-01-05T23:54:29.805Z,10.33
2019-01-05T23:57:17.369Z,8.40
